Time;durP1;ratioP1;P1;durP2;ratioP2;P2;SDS_P1;SDS_P2;PMS_P1;PMS_P2;Temp;Humidity;BMP_temperature;BMP_pressure;BME280_temperature;BME280_humidity;BME280_pressure;Samples;Min_cycle;Max_cycle;Signal;HPM_P1;HPM_P2
2022/04/08 00:00:43;;;;;;;17.48;12.13;;;;;;;9.22;63.60;98190.03;5030074;28;20029;-72
2022/04/08 00:03:09;;;;;;;15.98;11.50;;;;;;;9.20;63.41;98189.38;5030658;28;20363;-72
2022/04/08 00:05:35;;;;;;;16.20;11.77;;;;;;;9.21;63.25;98185.69;5029377;28;20458;-72
2022/04/08 00:08:00;;;;;;;16.20;11.18;;;;;;;9.22;63.19;98187.38;5031017;28;20048;-72
2022/04/08 00:10:26;;;;;;;16.50;12.13;;;;;;;9.14;63.50;98161.44;5030445;28;20069;-70
2022/04/08 00:12:51;;;;;;;14.27;11.88;;;;;;;9.15;63.01;98181.81;5028899;28;20033;-72
2022/04/08 00:15:17;;;;;;;16.92;11.85;;;;;;;9.20;62.88;98186.69;5030543;28;20099;-73
2022/04/08 00:17:42;;;;;;;17.48;11.60;;;;;;;9.25;62.70;98173.69;5033685;28;20038;-72
2022/04/08 00:20:08;;;;;;;15.65;10.95;;;;;;;9.07;62.22;98154.22;5051502;28;20434;-71
2022/04/08 00:22:42;;;;;;;14.45;11.23;;;;;;;9.23;62.30;98181.03;5054533;28;20033;-73
2022/04/08 00:25:11;;;;;;;15.15;10.57;;;;;;;9.33;61.92;98187.09;5054249;28;20155;-73
2022/04/08 00:27:38;;;;;;;14.10;10.85;;;;;;;9.33;61.52;98183.59;5054055;28;20041;-71
2022/04/08 00:30:05;;;;;;;14.45;11.05;;;;;;;9.36;61.75;98179.78;5054045;28;20094;-69
2022/04/08 00:32:33;;;;;;;15.70;11.07;;;;;;;9.38;60.88;98180.44;5054117;28;20037;-70
2022/04/08 00:34:59;;;;;;;13.52;9.57;;;;;;;9.24;60.66;98136.47;5054000;28;20064;-70
2022/04/08 00:37:24;;;;;;;15.70;10.52;;;;;;;9.23;60.44;98126.78;5054417;28;20461;-71
2022/04/08 00:39:50;;;;;;;13.05;10.65;;;;;;;9.53;60.21;98164.72;5054021;28;20036;-71
2022/04/08 00:42:16;;;;;;;15.75;10.32;;;;;;;9.62;59.07;98167.25;5053771;28;20428;-70
2022/04/08 00:44:41;;;;;;;13.55;9.85;;;;;;;9.61;59.21;98178.91;5053101;28;20412;-72
2022/04/08 00:47:06;;;;;;;14.80;9.88;;;;;;;9.53;59.33;98164.72;5053758;28;20208;-71
2022/04/08 00:49:37;;;;;;;14.48;9.27;;;;;;;9.58;59.08;98167.72;5053488;28;20110;-72
2022/04/08 00:52:03;;;;;;;18.42;10.00;;;;;;;9.50;58.87;98165.84;5054018;28;20171;-69
2022/04/08 00:54:32;;;;;;;13.23;8.85;;;;;;;9.50;59.11;98157.84;5051637;28;20037;-72
2022/04/08 00:56:58;;;;;;;12.38;8.93;;;;;;;9.45;58.52;98162.81;5033617;28;20448;-72
2022/04/08 00:59:27;;;;;;;11.35;8.48;;;;;;;9.46;58.84;98192.03;5033479;28;20108;-70
2022/04/08 01:01:52;;;;;;;10.73;8.18;;;;;;;9.46;58.37;98161.81;5034120;28;20613;-72
2022/04/08 01:04:21;;;;;;;11.13;8.60;;;;;;;9.41;57.83;98161.47;5033363;28;20124;-72
2022/04/08 01:06:47;;;;;;;10.75;8.23;;;;;;;9.46;57.98;98165.31;5033145;28;20352;-67
2022/04/08 01:09:12;;;;;;;11.95;8.73;;;;;;;9.44;57.72;98150.47;5033025;28;20489;-70
2022/04/08 01:11:38;;;;;;;12.68;8.00;;;;;;;9.49;57.64;98161.50;5033879;28;20064;-70
2022/04/08 01:14:11;;;;;;;11.75;8.80;;;;;;;9.54;57.81;98175.22;5032302;28;20034;-69
2022/04/08 01:16:37;;;;;;;11.32;8.60;;;;;;;9.44;57.81;98169.16;5033064;28;20033;-70
2022/04/08 01:19:03;;;;;;;14.50;9.88;;;;;;;9.39;58.19;98166.94;5033845;28;20021;-70
2022/04/08 01:21:29;;;;;;;13.98;9.88;;;;;;;9.25;58.70;98156.81;5032147;28;20469;-72
2022/04/08 01:23:56;;;;;;;15.35;10.38;;;;;;;9.26;58.98;98167.38;5033069;28;20038;-69
2022/04/08 01:26:22;;;;;;;15.35;10.00;;;;;;;9.20;58.86;98165.34;5033100;28;20041;-72
2022/04/08 01:28:48;;;;;;;15.02;11.27;;;;;;;9.05;59.44;98152.53;5032139;28;20033;-71
2022/04/08 01:31:14;;;;;;;12.60;9.63;;;;;;;9.05;59.45;98154.38;5033772;28;20049;-71
2022/04/08 01:33:39;;;;;;;14.23;10.35;;;;;;;9.04;59.54;98161.53;5033088;28;20061;-69
2022/04/08 01:36:05;;;;;;;13.75;10.20;;;;;;;8.94;59.86;98150.13;5033018;28;20076;-69
2022/04/08 01:38:30;;;;;;;15.45;10.02;;;;;;;8.74;59.44;98122.75;5031629;28;20095;-72
2022/04/08 01:40:56;;;;;;;14.25;10.27;;;;;;;8.91;59.58;98166.41;5033116;28;20081;-71
2022/04/08 01:43:21;;;;;;;13.88;9.95;;;;;;;8.66;59.38;98128.84;5033122;28;20037;-71
2022/04/08 01:45:47;;;;;;;15.38;10.13;;;;;;;8.86;59.50;98174.06;5032557;28;20480;-70
2022/04/08 01:48:13;;;;;;;13.10;9.68;;;;;;;8.74;59.44;98144.97;5032818;28;20551;-71
2022/04/08 01:50:38;;;;;;;13.70;9.90;;;;;;;8.66;59.19;98142.19;5033159;28;20029;-69
2022/04/08 01:53:04;;;;;;;14.05;10.35;;;;;;;8.81;59.23;98171.03;5032557;28;20370;-70
2022/04/08 01:55:30;;;;;;;13.05;9.10;;;;;;;8.83;59.01;98171.69;5032318;28;20029;-72
2022/04/08 01:57:55;;;;;;;15.40;9.07;;;;;;;8.76;58.50;98161.66;5030929;28;20381;-71
2022/04/08 02:00:21;;;;;;;14.07;9.00;;;;;;;8.86;58.32;98185.59;5032611;28;20025;-69
2022/04/08 02:02:46;;;;;;;13.82;8.77;;;;;;;8.71;58.62;98147.09;5031820;28;20190;-69
2022/04/08 02:05:12;;;;;;;12.60;8.63;;;;;;;8.61;58.24;98117.81;5032343;28;20022;-70
2022/04/08 02:07:37;;;;;;;10.27;8.05;;;;;;;8.84;58.46;98162.69;5032711;28;20032;-70
2022/04/08 02:10:04;;;;;;;10.40;7.95;;;;;;;8.79;58.20;98162.34;5031541;28;20122;-70
2022/04/08 02:12:30;;;;;;;9.63;8.27;;;;;;;8.81;57.99;98165.69;5032153;28;20454;-73
2022/04/08 02:14:56;;;;;;;11.73;8.65;;;;;;;8.81;58.22;98171.03;5031998;28;20026;-71
2022/04/08 02:17:25;;;;;;;12.30;8.38;;;;;;;8.80;57.84;98164.84;5031825;28;20036;-71
2022/04/08 02:19:52;;;;;;;14.98;8.50;;;;;;;8.54;58.18;98132.75;5032306;28;20032;-70
2022/04/08 02:22:18;;;;;;;14.02;8.13;;;;;;;8.79;57.57;98165.00;5031898;28;20094;-71
2022/04/08 02:24:46;;;;;;;11.35;8.52;;;;;;;8.79;57.65;98162.34;5032095;28;20029;-70
2022/04/08 02:27:12;;;;;;;11.30;7.57;;;;;;;8.73;57.19;98156.63;5031977;28;20025;-70
2022/04/08 02:29:37;;;;;;;11.40;7.50;;;;;;;8.80;57.07;98153.34;5032242;28;20056;-72
2022/04/08 02:32:04;;;;;;;13.43;7.25;;;;;;;8.76;56.79;98172.31;5031988;28;20041;-71
2022/04/08 02:34:30;;;;;;;13.23;6.85;;;;;;;8.84;56.68;98176.03;5031831;28;20040;-73
2022/04/08 02:36:55;;;;;;;9.15;6.45;;;;;;;8.89;56.00;98179.09;5031441;28;20112;-72
2022/04/08 02:39:21;;;;;;;11.20;6.78;;;;;;;8.88;56.00;98170.25;5031646;28;20065;-73
2022/04/08 02:41:46;;;;;;;9.77;6.65;;;;;;;8.94;55.84;98167.97;5032073;28;20041;-70
2022/04/08 02:44:12;;;;;;;11.45;6.63;;;;;;;9.00;55.20;98170.84;5031608;28;20116;-72
2022/04/08 02:46:37;;;;;;;11.52;7.13;;;;;;;9.02;55.44;98176.03;5031784;28;20067;-73
2022/04/08 02:49:03;;;;;;;10.25;6.07;;;;;;;8.82;54.83;98130.84;5031649;28;20454;-70
2022/04/08 02:51:28;;;;;;;13.35;6.25;;;;;;;9.10;54.67;98154.75;5031543;28;20034;-74
2022/04/08 02:53:54;;;;;;;10.75;6.22;;;;;;;9.15;54.95;98171.13;5031548;28;20036;-72
2022/04/08 02:56:20;;;;;;;11.80;5.70;;;;;;;9.15;54.10;98172.94;5031776;28;20033;-75
2022/04/08 02:58:48;;;;;;;9.60;6.50;;;;;;;9.19;54.01;98169.81;5031364;28;20040;-72
2022/04/08 03:01:15;;;;;;;9.93;5.82;;;;;;;9.19;53.96;98171.66;5031094;28;20041;-71
2022/04/08 03:03:40;;;;;;;9.57;5.90;;;;;;;9.22;54.15;98171.34;5030338;28;20022;-73
2022/04/08 03:06:06;;;;;;;9.05;5.90;;;;;;;9.21;54.01;98164.34;5047855;28;20047;-71
2022/04/08 03:08:32;;;;;;;8.50;6.13;;;;;;;9.05;53.19;98133.84;5051332;28;20396;-69
2022/04/08 03:10:57;;;;;;;10.65;6.20;;;;;;;9.36;53.51;98174.44;5031404;28;20078;-74
2022/04/08 03:13:23;;;;;;;8.57;5.70;;;;;;;9.38;52.74;98162.59;5035507;28;20492;-71
2022/04/08 03:15:49;;;;;;;7.82;5.30;;;;;;;9.51;52.40;98191.56;5035390;28;20021;-72
2022/04/08 03:18:15;;;;;;;16.58;5.90;;;;;;;9.59;52.54;98178.25;5031091;28;20057;-73
2022/04/08 03:20:41;;;;;;;11.30;6.05;;;;;;;9.72;51.98;98185.00;5031204;28;20088;-72
2022/04/08 03:23:06;;;;;;;9.13;5.90;;;;;;;9.74;51.67;98172.31;5030781;28;20034;-69
2022/04/08 03:25:32;;;;;;;10.07;5.43;;;;;;;9.93;51.12;98194.47;5031344;28;20034;-72
2022/04/08 03:27:57;;;;;;;10.98;5.80;;;;;;;10.05;50.86;98186.00;5029870;28;20036;-72
2022/04/08 03:30:24;;;;;;;8.73;6.18;;;;;;;10.17;50.03;98189.22;5030688;28;20065;-72
2022/04/08 03:32:50;;;;;;;6.80;5.30;;;;;;;10.23;49.52;98176.19;5030785;28;20493;-73
2022/04/08 03:35:15;;;;;;;13.20;6.07;;;;;;;10.54;49.42;98197.03;5031113;28;20045;-72
2022/04/08 03:37:40;;;;;;;8.13;5.88;;;;;;;10.78;48.65;98193.56;5030651;28;20033;-70
2022/04/08 03:40:06;;;;;;;10.23;6.15;;;;;;;11.09;47.76;98184.03;5038634;28;20029;-72
2022/04/08 03:42:32;;;;;;;8.75;5.63;;;;;;;11.37;46.85;98181.84;5031662;28;20041;-73
2022/04/08 03:44:57;;;;;;;9.20;5.50;;;;;;;11.59;46.22;98192.84;5031415;28;20029;-74
2022/04/08 03:47:23;;;;;;;9.38;5.88;;;;;;;11.69;45.49;98177.41;5033022;28;20029;-70
2022/04/08 03:49:48;;;;;;;9.30;5.68;;;;;;;11.82;45.39;98184.09;5030499;28;20029;-70
2022/04/08 03:52:14;;;;;;;8.25;5.38;;;;;;;11.95;45.15;98183.53;5040243;28;20025;-63
2022/04/08 03:54:40;;;;;;;6.57;5.05;;;;;;;12.16;44.34;98189.19;5039804;28;20028;-72
2022/04/08 03:57:06;;;;;;;13.95;5.72;;;;;;;12.36;43.39;98188.75;5038672;28;20389;-74
2022/04/08 03:59:31;;;;;;;8.73;5.25;;;;;;;12.54;43.07;98195.69;5040113;28;20461;-73
2022/04/08 04:01:58;;;;;;;8.07;5.70;;;;;;;12.72;42.70;98188.19;5038107;28;20021;-76
2022/04/08 04:04:23;;;;;;;10.25;5.32;;;;;;;13.02;42.06;98193.72;5038457;28;20362;-75
2022/04/08 04:06:50;;;;;;;7.95;5.03;;;;;;;13.25;41.18;98165.13;5040250;28;20028;-75
2022/04/08 04:09:16;;;;;;;9.40;5.30;;;;;;;13.71;40.56;98196.47;5038379;28;20074;-73
2022/04/08 04:11:41;;;;;;;9.82;5.57;;;;;;;14.07;39.43;98187.66;5038731;28;20396;-69
2022/04/08 04:14:07;;;;;;;8.07;4.82;;;;;;;14.31;38.70;98174.91;5040463;28;20029;-71
2022/04/08 04:16:33;;;;;;;8.52;5.22;;;;;;;14.70;37.90;98189.00;5038402;28;20033;-71
2022/04/08 04:18:59;;;;;;;6.70;5.15;;;;;;;15.07;36.91;98190.66;5038875;28;20384;-72
2022/04/08 04:21:24;;;;;;;8.60;5.00;;;;;;;15.26;36.43;98191.03;5040028;28;20111;-68
2022/04/08 04:23:51;;;;;;;8.73;5.50;;;;;;;15.27;36.06;98183.75;5038280;28;20435;-70
2022/04/08 04:26:17;;;;;;;6.95;5.00;;;;;;;15.25;36.48;98196.59;5039033;28;20025;-71
2022/04/08 04:28:42;;;;;;;10.75;5.80;;;;;;;15.18;36.58;98196.53;5040159;28;20022;-73
2022/04/08 04:31:08;;;;;;;8.30;5.10;;;;;;;15.13;36.56;98186.34;5037978;28;20457;-66
2022/04/08 04:33:34;;;;;;;12.80;5.85;;;;;;;15.10;36.38;98199.38;5039616;28;20951;-66
2022/04/08 04:36:00;;;;;;;7.45;5.10;;;;;;;14.96;36.71;98188.50;5038553;28;20044;-66
2022/04/08 04:38:25;;;;;;;14.75;5.20;;;;;;;14.80;36.69;98192.25;5037341;28;20026;-66
2022/04/08 04:40:51;;;;;;;10.18;5.50;;;;;;;14.41;37.23;98155.78;5039755;28;20473;-67
2022/04/08 04:43:16;;;;;;;7.90;5.35;;;;;;;14.44;38.01;98204.66;5039058;28;20056;-67
2022/04/08 04:45:43;;;;;;;8.05;5.10;;;;;;;14.29;38.13;98198.50;5038664;28;20025;-66
2022/04/08 04:48:11;;;;;;;9.75;5.50;;;;;;;14.01;38.50;98191.09;5040163;28;20098;-64
2022/04/08 04:50:38;;;;;;;9.98;6.05;;;;;;;13.85;38.69;98200.16;5038867;28;20113;-65
2022/04/08 04:53:04;;;;;;;9.55;4.95;;;;;;;13.64;38.74;98186.44;5037964;28;20029;-65
2022/04/08 04:55:29;;;;;;;9.35;5.50;;;;;;;13.47;39.22;98198.38;5040031;28;20103;-65
2022/04/08 04:57:56;;;;;;;11.52;5.82;;;;;;;13.39;39.20;98204.66;5038245;28;20121;-65
2022/04/08 05:00:22;;;;;;;11.45;5.45;;;;;;;13.00;39.33;98163.47;5035995;28;20025;-65
2022/04/08 05:02:47;;;;;;;8.32;5.47;;;;;;;13.14;39.80;98193.28;5031984;28;20092;-64
2022/04/08 05:05:14;;;;;;;8.25;5.55;;;;;;;13.17;39.46;98174.09;5045969;28;20037;-65
2022/04/08 05:07:39;;;;;;;7.72;5.28;;;;;;;13.43;39.00;98194.38;5053209;28;20032;-64
2022/04/08 05:10:06;;;;;;;8.45;5.40;;;;;;;13.80;38.22;98205.28;5033319;28;20029;-64
2022/04/08 05:12:34;;;;;;;8.98;5.40;;;;;;;14.23;37.44;98200.06;5042267;28;20034;-67
2022/04/08 05:14:59;;;;;;;11.57;5.55;;;;;;;14.66;36.22;98199.31;5050426;28;20037;-66
2022/04/08 05:17:25;;;;;;;9.93;5.75;;;;;;;15.28;35.08;98188.13;5039216;28;20037;-60
2022/04/08 05:19:50;;;;;;;13.57;5.60;;;;;;;16.16;33.42;98187.72;5041223;28;20041;-68
2022/04/08 05:22:17;;;;;;;10.65;6.00;;;;;;;16.79;32.05;98156.94;5043295;28;20084;-63
2022/04/08 05:24:42;;;;;;;13.88;5.55;;;;;;;17.97;30.31;98174.56;5040924;28;20024;-63
2022/04/08 05:27:08;;;;;;;11.65;5.63;;;;;;;19.38;27.79;98176.53;5040095;28;20110;-64
2022/04/08 05:29:33;;;;;;;10.23;5.65;;;;;;;20.96;25.83;98182.50;5042962;28;20021;-65
2022/04/08 05:31:59;;;;;;;8.50;5.70;;;;;;;22.15;24.04;98166.25;5041870;28;20048;-65
2022/04/08 05:34:27;;;;;;;10.85;5.50;;;;;;;22.86;23.23;98167.09;5025196;28;20036;-62
2022/04/08 05:36:52;;;;;;;9.57;5.80;;;;;;;23.25;22.12;98175.44;5052780;28;20028;-61
2022/04/08 05:39:18;;;;;;;9.43;5.72;;;;;;;23.89;21.47;98178.84;5045518;28;20108;-63
2022/04/08 05:41:43;;;;;;;9.07;5.18;;;;;;;24.70;20.85;98176.59;5032833;28;20453;-64
2022/04/08 05:44:09;;;;;;;9.18;5.47;;;;;;;25.64;19.52;98181.84;5014575;28;20029;-65
2022/04/08 05:46:35;;;;;;;8.73;5.10;;;;;;;26.71;17.88;98179.91;5032308;28;20029;-61
2022/04/08 05:49:01;;;;;;;12.10;5.75;;;;;;;27.55;17.73;98173.47;5031116;28;20088;-61
2022/04/08 05:51:27;;;;;;;11.80;5.28;;;;;;;28.35;16.58;98179.31;5033339;28;20055;-62
2022/04/08 05:53:52;;;;;;;12.23;5.05;;;;;;;28.96;15.79;98169.13;5033256;28;20053;-65
2022/04/08 05:56:18;;;;;;;7.07;5.25;;;;;;;29.31;14.88;98171.88;5032082;28;20491;-62
2022/04/08 05:58:43;;;;;;;12.45;5.43;;;;;;;29.03;15.18;98128.28;5033342;28;20045;-64
2022/04/08 06:01:09;;;;;;;12.50;5.78;;;;;;;29.30;15.07;98159.19;5033028;28;20040;-65
2022/04/08 06:03:34;;;;;;;8.15;5.40;;;;;;;29.03;15.41;98150.31;5031508;28;20037;-69
2022/04/08 06:06:00;;;;;;;8.95;5.22;;;;;;;28.81;15.23;98141.66;5033102;28;20409;-66
2022/04/08 06:08:25;;;;;;;12.13;5.93;;;;;;;28.54;15.55;98153.91;5032992;28;20454;-65
2022/04/08 06:10:51;;;;;;;13.88;5.68;;;;;;;28.22;15.80;98154.06;5033158;28;20147;-66
2022/04/08 06:13:17;;;;;;;12.88;5.53;;;;;;;28.22;15.75;98164.25;5052171;28;20500;-65
2022/04/08 06:15:43;;;;;;;10.95;5.15;;;;;;;27.71;15.89;98159.66;5052499;28;20063;-64
2022/04/08 06:18:13;;;;;;;16.10;5.72;;;;;;;27.72;16.57;98170.41;5040219;28;20033;-65
2022/04/08 06:20:38;;;;;;;13.60;5.82;;;;;;;28.98;14.88;98157.78;5032579;28;20046;-67
2022/04/08 06:23:04;;;;;;;14.82;5.68;;;;;;;30.11;14.17;98161.47;5032325;28;20128;-65
2022/04/08 06:25:29;;;;;;;12.07;5.57;;;;;;;30.20;13.52;98170.75;5040787;28;20033;-67
2022/04/08 06:28:03;;;;;;;10.35;6.00;;;;;;;29.60;14.79;98169.16;5036686;28;20041;-65
2022/04/08 06:30:30;;;;;;;9.07;5.60;;;;;;;30.09;13.65;98152.66;5032593;28;20068;-68
2022/04/08 06:32:55;;;;;;;10.20;6.30;;;;;;;30.33;13.37;98177.50;5030927;28;20386;-67
2022/04/08 06:35:21;;;;;;;7.63;5.60;;;;;;;29.56;14.08;98181.88;5039452;28;20036;-70
2022/04/08 06:37:47;;;;;;;10.77;5.88;;;;;;;29.73;13.99;98162.13;5038324;28;20036;-67
2022/04/08 06:40:13;;;;;;;11.02;5.78;;;;;;;30.30;13.45;98164.28;5050017;28;20075;-64
2022/04/08 06:42:39;;;;;;;14.18;5.72;;;;;;;30.57;12.81;98179.41;5030660;28;20037;-67
2022/04/08 06:45:06;;;;;;;13.73;6.82;;;;;;;30.34;13.41;98184.66;5049859;28;20104;-66
2022/04/08 06:47:31;;;;;;;11.80;6.18;;;;;;;29.54;13.77;98164.81;5052131;28;20554;-65
2022/04/08 06:49:57;;;;;;;11.23;6.65;;;;;;;28.58;14.13;98160.50;5051650;28;20021;-65
2022/04/08 06:52:23;;;;;;;10.43;6.20;;;;;;;27.26;15.62;98167.66;5049786;28;20036;-64
2022/04/08 06:54:49;;;;;;;13.45;6.93;;;;;;;26.01;16.63;98171.94;5051614;28;20446;-66
2022/04/08 06:57:14;;;;;;;15.77;6.93;;;;;;;24.58;17.75;98165.78;5051714;28;20051;-65
2022/04/08 06:59:41;;;;;;;11.23;6.18;;;;;;;23.52;19.01;98185.69;5050380;28;20053;-65
2022/04/08 07:02:07;;;;;;;11.05;7.00;;;;;;;22.41;20.07;98144.94;5035736;28;20497;-64
2022/04/08 07:04:33;;;;;;;9.20;6.70;;;;;;;22.04;20.90;98169.84;5030576;28;20028;-65
2022/04/08 07:06:58;;;;;;;9.25;6.32;;;;;;;21.59;21.19;98133.97;5037531;28;20029;-62
2022/04/08 07:09:24;;;;;;;12.05;6.90;;;;;;;21.42;21.96;98162.94;5051465;28;20029;-65
2022/04/08 07:11:49;;;;;;;10.52;7.90;;;;;;;21.13;22.19;98160.94;5045644;28;20030;-62
2022/04/08 07:14:15;;;;;;;13.07;8.10;;;;;;;20.72;22.80;98168.81;5050613;28;20033;-63
2022/04/08 07:16:43;;;;;;;13.52;7.38;;;;;;;20.47;23.15;98174.38;5051798;28;20112;-63
2022/04/08 07:19:12;;;;;;;10.95;7.68;;;;;;;20.37;23.23;98177.66;5050845;28;20039;-63
2022/04/08 07:21:37;;;;;;;12.32;7.72;;;;;;;20.00;23.54;98185.81;5050008;28;20028;-60
2022/04/08 07:24:03;;;;;;;14.07;8.10;;;;;;;19.74;24.00;98179.56;5051199;28;20135;-60
2022/04/08 07:26:29;;;;;;;12.88;7.53;;;;;;;19.77;24.18;98179.09;5050665;28;20421;-62
2022/04/08 07:28:55;;;;;;;12.75;7.85;;;;;;;19.76;23.99;98153.84;5051117;28;20068;-65
2022/04/08 07:31:21;;;;;;;11.60;7.80;;;;;;;19.59;24.13;98129.19;5049603;28;20516;-64
2022/04/08 07:33:47;;;;;;;10.77;7.90;;;;;;;19.81;24.39;98183.06;5042996;28;20037;-63
2022/04/08 07:36:13;;;;;;;15.10;8.13;;;;;;;19.77;24.58;98160.94;5031501;28;20485;-64
2022/04/08 07:38:39;;;;;;;17.10;7.90;;;;;;;20.07;24.19;98162.13;5047890;28;20033;-63
2022/04/08 07:41:04;;;;;;;16.33;8.07;;;;;;;20.40;23.51;98173.66;5050757;28;20036;-64
2022/04/08 07:43:30;;;;;;;19.17;10.82;;;;;;;20.60;23.52;98163.31;5049805;28;20064;-63
2022/04/08 07:45:55;;;;;;;16.42;7.97;;;;;;;20.70;23.36;98183.72;5049713;28;20063;-63
2022/04/08 07:48:21;;;;;;;13.55;8.20;;;;;;;20.63;23.12;98175.63;5050417;28;20439;-62
2022/04/08 07:50:47;;;;;;;13.30;7.60;;;;;;;20.54;23.21;98174.31;5049120;28;20128;-61
2022/04/08 07:53:12;;;;;;;13.05;7.95;;;;;;;20.36;23.71;98173.28;5050221;28;20024;-62
2022/04/08 07:55:39;;;;;;;13.52;8.13;;;;;;;20.33;23.78;98171.81;5050424;28;20095;-63
2022/04/08 07:58:05;;;;;;;13.57;7.82;;;;;;;20.13;24.05;98177.50;5050703;28;20433;-63
2022/04/08 08:00:34;;;;;;;19.50;7.90;;;;;;;19.96;24.77;98169.13;5049174;28;20032;-61
2022/04/08 08:03:00;;;;;;;17.63;7.85;;;;;;;19.77;24.74;98182.66;5050291;28;20029;-61
2022/04/08 08:05:26;;;;;;;16.45;8.25;;;;;;;19.52;25.03;98174.53;5050737;28;20025;-62
2022/04/08 08:07:57;;;;;;;16.23;7.60;;;;;;;19.31;25.54;98187.47;5049975;28;20051;-71
2022/04/08 08:10:27;;;;;;;20.30;8.45;;;;;;;19.27;25.71;98186.22;5040735;28;20082;-63
2022/04/08 08:12:54;;;;;;;12.80;8.10;;;;;;;18.87;25.71;98175.66;5030392;28;20030;-63
2022/04/08 08:15:21;;;;;;;12.27;7.18;;;;;;;18.72;26.08;98187.63;5034212;28;20026;-64
2022/04/08 08:17:47;;;;;;;14.82;7.30;;;;;;;18.43;26.21;98146.50;5036753;28;20047;-64
2022/04/08 08:20:14;;;;;;;14.80;7.63;;;;;;;18.39;26.56;98156.13;5037903;28;20038;-63
2022/04/08 08:22:41;;;;;;;15.25;8.20;;;;;;;18.45;26.41;98174.22;5047942;28;20374;-63
2022/04/08 08:25:07;;;;;;;18.77;8.07;;;;;;;18.42;26.53;98173.81;5049183;28;20509;-62
2022/04/08 08:28:01;;;;;;;16.52;8.73;;;;;;;18.52;26.92;98174.19;5050200;28;20025;-63
2022/04/08 08:30:29;;;;;;;12.65;7.80;;;;;;;18.18;26.97;98177.03;5041273;28;20377;-62
2022/04/08 08:32:55;;;;;;;17.58;8.10;;;;;;;18.00;27.46;98176.84;5037608;28;20145;-63
2022/04/08 08:35:21;;;;;;;15.63;7.82;;;;;;;17.97;27.60;98177.28;5040731;28;20045;-63
2022/04/08 08:37:49;;;;;;;19.00;8.13;;;;;;;17.99;27.60;98183.31;5041447;28;20080;-62
2022/04/08 08:40:16;;;;;;;18.42;7.65;;;;;;;18.03;27.36;98162.91;5052576;28;20106;-63
2022/04/08 08:42:42;;;;;;;24.33;7.95;;;;;;;17.96;27.67;98162.91;5042077;28;20032;-64
2022/04/08 08:45:10;;;;;;;19.20;7.85;;;;;;;17.92;27.69;98156.25;5033997;28;20041;-63
2022/04/08 08:47:36;;;;;;;21.80;8.20;;;;;;;18.02;27.62;98163.97;5033846;28;20040;-63
2022/04/08 08:50:03;;;;;;;17.42;7.75;;;;;;;18.09;27.48;98159.38;5032424;28;20033;-63
2022/04/08 08:52:29;;;;;;;20.00;8.50;;;;;;;18.12;27.34;98168.94;5039691;28;20090;-63
2022/04/08 08:54:55;;;;;;;16.90;8.63;;;;;;;18.05;27.34;98148.13;5054110;28;20033;-62
2022/04/08 08:57:22;;;;;;;13.75;8.70;;;;;;;17.62;27.60;98130.53;5052405;28;20079;-63
2022/04/08 08:59:51;;;;;;;15.82;8.65;;;;;;;17.90;27.79;98156.47;5053084;28;20444;-64
2022/04/08 09:02:19;;;;;;;18.80;8.95;;;;;;;18.08;27.47;98155.81;5054023;28;20049;-62
2022/04/08 09:04:45;;;;;;;16.00;9.00;;;;;;;18.21;27.28;98133.28;5052391;28;20078;-63
2022/04/08 09:07:29;;;;;;;19.60;9.98;;;;;;;18.31;27.20;98121.13;5052566;28;20025;-63
2022/04/08 09:09:57;;;;;;;16.85;10.15;;;;;;;18.29;27.04;98148.44;5053001;28;20037;-64
2022/04/08 09:12:28;;;;;;;27.25;9.98;;;;;;;18.32;27.01;98134.47;5054299;28;20542;-65
2022/04/08 09:14:56;;;;;;;20.20;9.93;;;;;;;18.22;27.08;98107.03;5053802;28;20427;-63
2022/04/08 09:17:24;;;;;;;18.52;10.15;;;;;;;18.33;26.53;98097.41;5053202;28;20027;-64
2022/04/08 09:19:55;;;;;;;16.63;10.13;;;;;;;18.50;26.12;98136.47;5047787;28;20064;-65
2022/04/08 09:22:21;;;;;;;23.23;11.05;;;;;;;18.26;26.35;98123.66;5037801;28;20472;-65
2022/04/08 09:24:48;;;;;;;16.10;10.15;;;;;;;18.22;26.46;98118.69;5042290;28;20083;-64
2022/04/08 09:27:14;;;;;;;16.83;10.00;;;;;;;18.43;25.74;98129.41;5033301;28;20184;-63
2022/04/08 09:29:44;;;;;;;15.43;10.10;;;;;;;18.46;25.80;98110.84;5036482;28;20033;-63
2022/04/08 09:32:11;;;;;;;14.85;10.50;;;;;;;18.24;25.97;98114.94;5036620;28;20056;-64
2022/04/08 09:34:38;;;;;;;15.50;10.23;;;;;;;18.24;25.84;98148.28;5031923;28;20065;-62
2022/04/08 09:37:11;;;;;;;28.98;9.93;;;;;;;18.29;26.04;98112.38;5044861;28;20040;-65
2022/04/08 09:40:01;;;;;;;17.27;9.55;;;;;;;18.15;26.18;98109.75;5052776;28;20450;-63
2022/04/08 09:42:46;;;;;;;18.00;10.43;;;;;;;18.13;26.33;98101.03;5033124;28;20108;-62
2022/04/08 09:45:13;;;;;;;;;;;;;;;18.49;26.39;98101.47;5033281;28;20358;-62
2022/04/08 09:47:40;;;;;;;18.27;10.05;;;;;;;18.30;25.50;98104.06;5032569;28;19913;-64
2022/04/08 09:50:07;;;;;;;18.42;10.32;;;;;;;18.33;25.44;98108.22;5031405;28;20029;-65
2022/04/08 09:52:33;;;;;;;14.57;10.77;;;;;;;18.39;25.86;98118.19;5040582;28;20056;-65
2022/04/08 09:55:03;;;;;;;19.27;11.00;;;;;;;18.39;25.83;98114.63;5051448;28;20064;-65
2022/04/08 09:57:36;;;;;;;19.67;9.98;;;;;;;18.39;25.91;98126.31;5051977;28;20025;-65
2022/04/08 10:00:03;;;;;;;18.25;9.43;;;;;;;18.27;26.06;98107.22;5051524;28;20427;-61
2022/04/08 10:02:29;;;;;;;13.82;9.38;;;;;;;18.20;25.92;98120.78;5051795;28;20120;-64
2022/04/08 10:04:55;;;;;;;13.10;9.02;;;;;;;18.22;26.03;98102.44;5050925;28;20108;-64
2022/04/08 10:07:21;;;;;;;15.32;8.57;;;;;;;18.17;26.29;98123.06;5050942;28;20507;-67
2022/04/08 10:10:06;;;;;;;16.40;9.02;;;;;;;18.11;26.40;98100.41;5052194;28;20032;-68
2022/04/08 10:12:53;;;;;;;13.90;8.32;;;;;;;17.97;26.77;98123.13;5051855;28;20044;-63
2022/04/08 10:15:31;;;;;;;13.80;8.90;;;;;;;17.84;27.00;98108.59;5051770;28;20107;-64
2022/04/08 10:17:58;;;;;;;15.35;7.35;;;;;;;17.63;26.98;98115.13;5032639;28;20037;-62
2022/04/08 10:20:27;;;;;;;14.57;8.55;;;;;;;17.64;26.97;98111.34;5032815;28;20046;-61
2022/04/08 10:23:03;;;;;;;12.18;8.07;;;;;;;17.61;27.16;98088.28;5041620;28;20029;-65
2022/04/08 10:25:38;;;;;;;14.80;8.07;;;;;;;17.69;27.28;98119.66;5034898;28;20036;-62
2022/04/08 10:28:04;;;;;;;;;;;;;;;18.11;26.85;98103.13;5052113;28;20075;-61
2022/04/08 10:30:32;;;;;;;;;;;;;;;18.28;26.59;98118.84;5052540;28;19916;-66
2022/04/08 10:33:06;;;;;;;16.20;7.70;;;;;;;18.03;26.89;98100.63;5050802;28;20414;-66
2022/04/08 10:35:32;;;;;;;14.18;8.30;;;;;;;17.86;26.84;98087.56;5050422;28;20028;-63
2022/04/08 10:38:04;;;;;;;14.18;7.28;;;;;;;17.94;27.17;98103.56;5051977;28;20091;-65
2022/04/08 10:40:46;;;;;;;15.75;7.78;;;;;;;17.87;27.23;98104.63;5052095;28;20029;-66
2022/04/08 10:43:13;;;;;;;16.38;8.32;;;;;;;17.74;27.74;98108.22;5051338;28;20060;-64
2022/04/08 10:45:39;;;;;;;13.68;7.55;;;;;;;17.75;27.56;98115.28;5051908;28;20028;-64
2022/04/08 10:48:10;;;;;;;10.80;7.80;;;;;;;17.70;27.82;98105.09;5052020;28;20033;-66
2022/04/08 10:50:37;;;;;;;11.63;7.38;;;;;;;17.54;28.29;98103.69;5050416;28;20036;-64
2022/04/08 10:53:08;;;;;;;11.63;7.63;;;;;;;17.32;28.20;98049.00;5051128;28;20453;-63
2022/04/08 10:55:47;;;;;;;15.00;7.97;;;;;;;17.61;28.24;98072.03;5051657;28;20041;-63
2022/04/08 10:58:13;;;;;;;16.27;8.73;;;;;;;17.58;28.16;98077.84;5051919;28;20415;-64
2022/04/08 11:00:39;;;;;;;16.77;8.48;;;;;;;17.67;28.09;98066.81;5051272;28;20060;-64
2022/04/08 11:03:06;;;;;;;15.25;8.38;;;;;;;17.67;28.12;98086.56;5051090;28;20037;-64
2022/04/08 11:05:38;;;;;;;16.73;8.93;;;;;;;17.77;28.18;98067.19;5034022;28;20033;-64
2022/04/08 11:08:05;;;;;;;20.13;10.15;;;;;;;17.65;28.30;98077.84;5051395;28;20025;-64
2022/04/08 11:10:31;;;;;;;15.85;9.43;;;;;;;17.62;28.55;98076.41;5049927;28;20028;-64
2022/04/08 11:12:59;;;;;;;22.88;10.20;;;;;;;16.93;29.41;98035.31;5050185;28;20078;-64
2022/04/08 11:15:28;;;;;;;16.38;9.05;;;;;;;17.16;29.61;98077.34;5051938;28;20457;-63
2022/04/08 11:17:54;;;;;;;14.70;9.38;;;;;;;17.05;30.13;98095.84;5051860;28;20032;-64
2022/04/08 11:20:22;;;;;;;21.73;9.82;;;;;;;16.87;30.45;98058.59;5050443;28;20226;-63
2022/04/08 11:22:49;;;;;;;14.73;9.98;;;;;;;16.77;30.59;98075.22;5047950;28;20033;-63
2022/04/08 11:25:26;;;;;;;18.77;10.20;;;;;;;16.85;30.70;98074.19;5050474;28;20090;-65
2022/04/08 11:28:01;;;;;;;23.35;10.15;;;;;;;16.85;30.97;98065.25;5051280;28;20029;-66